sensor_id;sensor_type;location;lat;lon;timestamp;P1;durP1;ratioP1;P2;durP2;ratioP2
2638;SDS011;1329;51.384;7.122;2023-01-10T00:01:44;13.17;;;8.53;;
2638;SDS011;1329;51.384;7.122;2023-01-10T00:04:11;11.53;;;7.53;;
2638;SDS011;1329;51.384;7.122;2023-01-10T00:06:39;12.87;;;7.10;;
2638;SDS011;1329;51.384;7.122;2023-01-10T00:09:06;11.70;;;8.33;;
2638;SDS011;1329;51.384;7.122;2023-01-10T00:11:34;10.57;;;7.50;;
2638;SDS011;1329;51.384;7.122;2023-01-10T00:14:18;10.33;;;6.90;;
2638;SDS011;1329;51.384;7.122;2023-01-10T00:16:45;9.27;;;6.80;;
2638;SDS011;1329;51.384;7.122;2023-01-10T00:19:12;10.40;;;7.00;;
2638;SDS011;1329;51.384;7.122;2023-01-10T00:21:40;9.83;;;7.00;;
2638;SDS011;1329;51.384;7.122;2023-01-10T00:24:07;9.97;;;7.10;;
2638;SDS011;1329;51.384;7.122;2023-01-10T00:26:43;11.03;;;7.13;;
2638;SDS011;1329;51.384;7.122;2023-01-10T00:29:15;11.30;;;6.67;;
2638;SDS011;1329;51.384;7.122;2023-01-10T00:31:42;12.53;;;7.20;;
2638;SDS011;1329;51.384;7.122;2023-01-10T00:34:09;8.37;;;6.57;;
2638;SDS011;1329;51.384;7.122;2023-01-10T00:36:36;11.70;;;7.10;;
2638;SDS011;1329;51.384;7.122;2023-01-10T00:39:04;15.07;;;7.00;;
2638;SDS011;1329;51.384;7.122;2023-01-10T00:41:33;10.63;;;6.60;;
2638;SDS011;1329;51.384;7.122;2023-01-10T00:44:18;9.73;;;6.10;;
2638;SDS011;1329;51.384;7.122;2023-01-10T00:46:44;10.93;;;6.90;;
2638;SDS011;1329;51.384;7.122;2023-01-10T00:49:11;9.27;;;5.90;;
2638;SDS011;1329;51.384;7.122;2023-01-10T00:51:40;9.23;;;6.30;;
2638;SDS011;1329;51.384;7.122;2023-01-10T00:54:09;10.73;;;6.33;;
2638;SDS011;1329;51.384;7.122;2023-01-10T00:56:37;8.73;;;5.67;;
2638;SDS011;1329;51.384;7.122;2023-01-10T00:59:04;10.00;;;5.57;;
2638;SDS011;1329;51.384;7.122;2023-01-10T01:01:31;9.23;;;5.77;;
2638;SDS011;1329;51.384;7.122;2023-01-10T01:03:58;9.47;;;5.50;;
2638;SDS011;1329;51.384;7.122;2023-01-10T01:06:25;9.77;;;6.00;;
2638;SDS011;1329;51.384;7.122;2023-01-10T01:08:52;8.17;;;5.37;;
2638;SDS011;1329;51.384;7.122;2023-01-10T01:11:20;11.27;;;5.57;;
2638;SDS011;1329;51.384;7.122;2023-01-10T01:13:47;10.30;;;5.90;;
2638;SDS011;1329;51.384;7.122;2023-01-10T01:16:14;11.23;;;5.70;;
2638;SDS011;1329;51.384;7.122;2023-01-10T01:18:41;8.33;;;5.40;;
2638;SDS011;1329;51.384;7.122;2023-01-10T01:21:08;8.47;;;5.47;;
2638;SDS011;1329;51.384;7.122;2023-01-10T01:23:35;11.00;;;5.40;;
2638;SDS011;1329;51.384;7.122;2023-01-10T01:26:02;10.03;;;5.03;;
2638;SDS011;1329;51.384;7.122;2023-01-10T01:28:31;9.13;;;5.80;;
2638;SDS011;1329;51.384;7.122;2023-01-10T01:30:58;9.87;;;5.00;;
2638;SDS011;1329;51.384;7.122;2023-01-10T01:33:32;10.43;;;5.50;;
2638;SDS011;1329;51.384;7.122;2023-01-10T01:35:58;7.40;;;4.40;;
2638;SDS011;1329;51.384;7.122;2023-01-10T01:38:25;9.53;;;5.27;;
2638;SDS011;1329;51.384;7.122;2023-01-10T01:40:52;8.90;;;4.60;;
2638;SDS011;1329;51.384;7.122;2023-01-10T01:43:22;9.27;;;4.40;;
2638;SDS011;1329;51.384;7.122;2023-01-10T01:45:52;8.93;;;4.53;;
2638;SDS011;1329;51.384;7.122;2023-01-10T01:48:21;9.63;;;4.70;;
2638;SDS011;1329;51.384;7.122;2023-01-10T01:50:58;9.27;;;4.30;;
2638;SDS011;1329;51.384;7.122;2023-01-10T01:53:33;6.07;;;3.80;;
2638;SDS011;1329;51.384;7.122;2023-01-10T01:56:06;9.10;;;3.87;;
2638;SDS011;1329;51.384;7.122;2023-01-10T01:58:43;7.80;;;3.67;;
2638;SDS011;1329;51.384;7.122;2023-01-10T02:01:16;6.33;;;3.57;;
2638;SDS011;1329;51.384;7.122;2023-01-10T02:03:44;9.97;;;3.40;;
2638;SDS011;1329;51.384;7.122;2023-01-10T02:06:17;10.97;;;3.80;;
2638;SDS011;1329;51.384;7.122;2023-01-10T02:08:59;9.27;;;3.63;;
2638;SDS011;1329;51.384;7.122;2023-01-10T02:11:33;6.90;;;3.10;;
2638;SDS011;1329;51.384;7.122;2023-01-10T02:14:00;9.00;;;3.27;;
2638;SDS011;1329;51.384;7.122;2023-01-10T02:16:32;6.53;;;2.77;;
2638;SDS011;1329;51.384;7.122;2023-01-10T02:18:59;8.13;;;2.70;;
2638;SDS011;1329;51.384;7.122;2023-01-10T02:21:32;6.83;;;3.00;;
2638;SDS011;1329;51.384;7.122;2023-01-10T02:27:53;6.97;;;2.70;;
2638;SDS011;1329;51.384;7.122;2023-01-10T02:30:51;6.07;;;2.63;;
2638;SDS011;1329;51.384;7.122;2023-01-10T02:33:46;7.50;;;2.90;;
2638;SDS011;1329;51.384;7.122;2023-01-10T02:36:28;5.27;;;2.40;;
2638;SDS011;1329;51.384;7.122;2023-01-10T02:39:05;6.60;;;2.87;;
2638;SDS011;1329;51.384;7.122;2023-01-10T02:41:44;6.37;;;3.00;;
2638;SDS011;1329;51.384;7.122;2023-01-10T02:44:18;7.93;;;3.20;;
2638;SDS011;1329;51.384;7.122;2023-01-10T02:46:50;8.63;;;2.77;;
2638;SDS011;1329;51.384;7.122;2023-01-10T02:49:18;7.73;;;2.93;;
2638;SDS011;1329;51.384;7.122;2023-01-10T02:51:45;8.53;;;3.03;;
2638;SDS011;1329;51.384;7.122;2023-01-10T02:54:12;6.40;;;2.73;;
2638;SDS011;1329;51.384;7.122;2023-01-10T02:56:47;7.43;;;2.50;;
2638;SDS011;1329;51.384;7.122;2023-01-10T02:59:54;6.63;;;2.60;;
2638;SDS011;1329;51.384;7.122;2023-01-10T03:02:52;7.87;;;2.90;;
2638;SDS011;1329;51.384;7.122;2023-01-10T03:05:34;6.23;;;2.93;;
2638;SDS011;1329;51.384;7.122;2023-01-10T03:08:23;7.87;;;3.07;;
2638;SDS011;1329;51.384;7.122;2023-01-10T03:10:57;7.80;;;3.27;;
2638;SDS011;1329;51.384;7.122;2023-01-10T03:13:28;8.23;;;2.87;;
2638;SDS011;1329;51.384;7.122;2023-01-10T03:16:03;8.73;;;3.57;;
2638;SDS011;1329;51.384;7.122;2023-01-10T03:18:35;9.57;;;3.30;;
2638;SDS011;1329;51.384;7.122;2023-01-10T03:21:09;10.23;;;3.30;;
2638;SDS011;1329;51.384;7.122;2023-01-10T03:23:38;7.30;;;3.07;;
2638;SDS011;1329;51.384;7.122;2023-01-10T03:26:06;9.37;;;3.27;;
2638;SDS011;1329;51.384;7.122;2023-01-10T03:28:37;7.97;;;3.40;;
2638;SDS011;1329;51.384;7.122;2023-01-10T03:31:12;9.80;;;3.60;;
2638;SDS011;1329;51.384;7.122;2023-01-10T03:33:41;10.17;;;3.43;;
2638;SDS011;1329;51.384;7.122;2023-01-10T03:36:12;9.20;;;3.37;;
2638;SDS011;1329;51.384;7.122;2023-01-10T03:38:51;7.33;;;3.10;;
2638;SDS011;1329;51.384;7.122;2023-01-10T03:41:23;8.97;;;3.40;;
2638;SDS011;1329;51.384;7.122;2023-01-10T03:44:02;7.83;;;3.10;;
2638;SDS011;1329;51.384;7.122;2023-01-10T03:46:58;7.93;;;3.30;;
2638;SDS011;1329;51.384;7.122;2023-01-10T03:49:30;7.97;;;3.40;;
2638;SDS011;1329;51.384;7.122;2023-01-10T03:52:00;10.67;;;3.53;;
2638;SDS011;1329;51.384;7.122;2023-01-10T03:54:28;8.53;;;3.60;;
2638;SDS011;1329;51.384;7.122;2023-01-10T03:56:55;7.33;;;3.37;;
2638;SDS011;1329;51.384;7.122;2023-01-10T03:59:23;10.03;;;3.20;;
2638;SDS011;1329;51.384;7.122;2023-01-10T04:01:52;10.20;;;3.20;;
2638;SDS011;1329;51.384;7.122;2023-01-10T04:04:20;8.27;;;2.90;;
2638;SDS011;1329;51.384;7.122;2023-01-10T04:06:47;9.47;;;3.07;;
2638;SDS011;1329;51.384;7.122;2023-01-10T04:09:15;13.00;;;2.83;;
2638;SDS011;1329;51.384;7.122;2023-01-10T04:11:42;10.57;;;3.30;;
2638;SDS011;1329;51.384;7.122;2023-01-10T04:14:09;9.33;;;3.43;;
2638;SDS011;1329;51.384;7.122;2023-01-10T04:16:35;7.10;;;3.20;;
2638;SDS011;1329;51.384;7.122;2023-01-10T04:19:02;8.17;;;2.90;;
2638;SDS011;1329;51.384;7.122;2023-01-10T04:21:29;9.27;;;3.00;;
2638;SDS011;1329;51.384;7.122;2023-01-10T04:23:56;8.13;;;3.20;;
2638;SDS011;1329;51.384;7.122;2023-01-10T04:26:24;7.67;;;3.60;;
2638;SDS011;1329;51.384;7.122;2023-01-10T04:28:51;11.07;;;3.20;;
2638;SDS011;1329;51.384;7.122;2023-01-10T04:31:18;6.87;;;2.90;;
2638;SDS011;1329;51.384;7.122;2023-01-10T04:33:46;10.27;;;2.83;;
2638;SDS011;1329;51.384;7.122;2023-01-10T04:36:13;6.17;;;3.10;;
2638;SDS011;1329;51.384;7.122;2023-01-10T04:38:40;8.63;;;3.17;;
2638;SDS011;1329;51.384;7.122;2023-01-10T04:41:07;8.57;;;3.23;;
2638;SDS011;1329;51.384;7.122;2023-01-10T04:43:36;7.93;;;3.20;;
2638;SDS011;1329;51.384;7.122;2023-01-10T04:46:03;8.80;;;4.00;;
2638;SDS011;1329;51.384;7.122;2023-01-10T04:48:30;7.60;;;2.87;;
2638;SDS011;1329;51.384;7.122;2023-01-10T04:50:57;8.27;;;3.13;;
2638;SDS011;1329;51.384;7.122;2023-01-10T04:53:24;7.50;;;2.83;;
2638;SDS011;1329;51.384;7.122;2023-01-10T04:55:51;6.77;;;3.00;;
2638;SDS011;1329;51.384;7.122;2023-01-10T04:58:17;9.60;;;3.47;;
2638;SDS011;1329;51.384;7.122;2023-01-10T05:00:46;9.77;;;3.30;;
2638;SDS011;1329;51.384;7.122;2023-01-10T05:03:12;9.40;;;2.93;;
2638;SDS011;1329;51.384;7.122;2023-01-10T05:05:41;7.53;;;3.03;;
2638;SDS011;1329;51.384;7.122;2023-01-10T05:08:08;10.83;;;3.40;;
2638;SDS011;1329;51.384;7.122;2023-01-10T05:10:35;9.37;;;3.33;;
2638;SDS011;1329;51.384;7.122;2023-01-10T05:13:02;8.90;;;3.53;;
2638;SDS011;1329;51.384;7.122;2023-01-10T05:15:29;9.33;;;3.10;;
2638;SDS011;1329;51.384;7.122;2023-01-10T05:17:57;8.43;;;3.27;;
2638;SDS011;1329;51.384;7.122;2023-01-10T05:20:25;7.50;;;3.40;;
2638;SDS011;1329;51.384;7.122;2023-01-10T05:22:52;10.13;;;2.97;;
2638;SDS011;1329;51.384;7.122;2023-01-10T05:25:19;9.37;;;3.20;;
2638;SDS011;1329;51.384;7.122;2023-01-10T05:27:46;7.57;;;3.40;;
2638;SDS011;1329;51.384;7.122;2023-01-10T05:30:13;9.50;;;3.53;;
2638;SDS011;1329;51.384;7.122;2023-01-10T05:32:40;10.67;;;3.60;;
2638;SDS011;1329;51.384;7.122;2023-01-10T05:35:08;9.73;;;3.37;;
2638;SDS011;1329;51.384;7.122;2023-01-10T05:37:35;7.97;;;3.30;;
2638;SDS011;1329;51.384;7.122;2023-01-10T05:40:03;12.27;;;3.77;;
2638;SDS011;1329;51.384;7.122;2023-01-10T05:42:31;9.43;;;3.20;;
2638;SDS011;1329;51.384;7.122;2023-01-10T05:44:58;8.53;;;3.50;;
2638;SDS011;1329;51.384;7.122;2023-01-10T05:47:25;11.10;;;3.00;;
2638;SDS011;1329;51.384;7.122;2023-01-10T05:49:52;10.73;;;3.70;;
2638;SDS011;1329;51.384;7.122;2023-01-10T05:52:20;8.83;;;3.20;;
2638;SDS011;1329;51.384;7.122;2023-01-10T05:54:47;10.30;;;3.73;;
2638;SDS011;1329;51.384;7.122;2023-01-10T05:57:14;10.40;;;3.10;;
2638;SDS011;1329;51.384;7.122;2023-01-10T05:59:40;12.23;;;3.57;;
2638;SDS011;1329;51.384;7.122;2023-01-10T06:02:07;8.83;;;3.50;;
2638;SDS011;1329;51.384;7.122;2023-01-10T06:04:34;6.17;;;3.37;;
2638;SDS011;1329;51.384;7.122;2023-01-10T06:07:01;8.90;;;3.20;;
2638;SDS011;1329;51.384;7.122;2023-01-10T06:09:29;10.87;;;3.30;;
2638;SDS011;1329;51.384;7.122;2023-01-10T06:11:57;12.30;;;3.57;;
2638;SDS011;1329;51.384;7.122;2023-01-10T06:14:24;11.77;;;3.33;;
2638;SDS011;1329;51.384;7.122;2023-01-10T06:16:50;14.10;;;3.27;;
2638;SDS011;1329;51.384;7.122;2023-01-10T06:19:17;8.50;;;3.20;;
2638;SDS011;1329;51.384;7.122;2023-01-10T06:21:44;9.83;;;3.23;;
2638;SDS011;1329;51.384;7.122;2023-01-10T06:24:11;10.07;;;3.00;;
2638;SDS011;1329;51.384;7.122;2023-01-10T06:26:39;10.93;;;3.50;;
2638;SDS011;1329;51.384;7.122;2023-01-10T06:29:06;10.53;;;3.33;;
2638;SDS011;1329;51.384;7.122;2023-01-10T06:31:33;9.63;;;3.27;;
2638;SDS011;1329;51.384;7.122;2023-01-10T06:34:00;15.67;;;4.07;;
2638;SDS011;1329;51.384;7.122;2023-01-10T06:36:26;11.80;;;3.63;;
2638;SDS011;1329;51.384;7.122;2023-01-10T06:38:53;10.83;;;3.17;;
2638;SDS011;1329;51.384;7.122;2023-01-10T06:41:20;12.77;;;3.70;;
2638;SDS011;1329;51.384;7.122;2023-01-10T06:43:48;10.83;;;3.70;;
2638;SDS011;1329;51.384;7.122;2023-01-10T06:46:16;17.13;;;3.70;;
2638;SDS011;1329;51.384;7.122;2023-01-10T06:48:44;10.70;;;3.60;;
2638;SDS011;1329;51.384;7.122;2023-01-10T06:51:12;11.03;;;3.80;;
2638;SDS011;1329;51.384;7.122;2023-01-10T06:53:40;10.10;;;3.60;;
2638;SDS011;1329;51.384;7.122;2023-01-10T06:56:08;13.10;;;3.73;;
2638;SDS011;1329;51.384;7.122;2023-01-10T06:58:35;9.03;;;3.60;;
2638;SDS011;1329;51.384;7.122;2023-01-10T07:01:05;9.23;;;3.83;;
2638;SDS011;1329;51.384;7.122;2023-01-10T07:03:32;9.57;;;3.70;;
2638;SDS011;1329;51.384;7.122;2023-01-10T07:06:00;12.90;;;4.10;;
2638;SDS011;1329;51.384;7.122;2023-01-10T07:08:27;12.97;;;4.07;;
2638;SDS011;1329;51.384;7.122;2023-01-10T07:10:56;14.80;;;4.50;;
2638;SDS011;1329;51.384;7.122;2023-01-10T07:13:24;12.73;;;4.23;;
2638;SDS011;1329;51.384;7.122;2023-01-10T07:15:51;10.50;;;4.47;;
2638;SDS011;1329;51.384;7.122;2023-01-10T07:18:30;15.20;;;4.73;;
2638;SDS011;1329;51.384;7.122;2023-01-10T07:20:57;14.47;;;4.37;;
2638;SDS011;1329;51.384;7.122;2023-01-10T07:23:24;14.77;;;4.53;;
2638;SDS011;1329;51.384;7.122;2023-01-10T07:25:51;13.83;;;3.87;;
2638;SDS011;1329;51.384;7.122;2023-01-10T07:28:18;13.90;;;4.83;;
2638;SDS011;1329;51.384;7.122;2023-01-10T07:30:45;13.43;;;4.03;;
2638;SDS011;1329;51.384;7.122;2023-01-10T07:33:12;14.43;;;4.07;;
2638;SDS011;1329;51.384;7.122;2023-01-10T07:35:40;13.53;;;5.10;;
2638;SDS011;1329;51.384;7.122;2023-01-10T07:38:07;16.23;;;4.47;;
2638;SDS011;1329;51.384;7.122;2023-01-10T07:40:34;15.23;;;4.53;;
2638;SDS011;1329;51.384;7.122;2023-01-10T07:43:01;16.07;;;4.70;;
2638;SDS011;1329;51.384;7.122;2023-01-10T07:45:29;15.33;;;5.30;;
2638;SDS011;1329;51.384;7.122;2023-01-10T07:47:56;13.07;;;4.80;;
2638;SDS011;1329;51.384;7.122;2023-01-10T07:50:24;17.00;;;4.93;;
2638;SDS011;1329;51.384;7.122;2023-01-10T07:52:53;12.23;;;5.10;;
2638;SDS011;1329;51.384;7.122;2023-01-10T07:55:21;15.20;;;5.17;;
2638;SDS011;1329;51.384;7.122;2023-01-10T07:57:48;12.57;;;5.30;;
2638;SDS011;1329;51.384;7.122;2023-01-10T08:00:16;15.00;;;5.50;;
2638;SDS011;1329;51.384;7.122;2023-01-10T08:02:44;17.13;;;5.40;;
2638;SDS011;1329;51.384;7.122;2023-01-10T08:05:11;15.97;;;5.17;;
2638;SDS011;1329;51.384;7.122;2023-01-10T08:07:38;17.93;;;5.83;;
2638;SDS011;1329;51.384;7.122;2023-01-10T08:10:07;15.47;;;5.87;;
2638;SDS011;1329;51.384;7.122;2023-01-10T08:12:35;13.40;;;5.50;;
2638;SDS011;1329;51.384;7.122;2023-01-10T08:15:02;13.17;;;4.97;;
2638;SDS011;1329;51.384;7.122;2023-01-10T08:17:31;12.87;;;5.40;;
2638;SDS011;1329;51.384;7.122;2023-01-10T08:19:59;17.03;;;5.00;;
2638;SDS011;1329;51.384;7.122;2023-01-10T08:22:26;10.80;;;5.03;;
2638;SDS011;1329;51.384;7.122;2023-01-10T08:24:53;19.87;;;5.63;;
2638;SDS011;1329;51.384;7.122;2023-01-10T08:27:21;13.17;;;5.00;;
2638;SDS011;1329;51.384;7.122;2023-01-10T08:29:48;17.93;;;5.70;;
2638;SDS011;1329;51.384;7.122;2023-01-10T08:32:15;16.03;;;5.37;;
2638;SDS011;1329;51.384;7.122;2023-01-10T08:34:42;17.67;;;4.77;;
2638;SDS011;1329;51.384;7.122;2023-01-10T08:37:10;11.33;;;4.40;;
2638;SDS011;1329;51.384;7.122;2023-01-10T08:39:38;13.80;;;4.67;;
2638;SDS011;1329;51.384;7.122;2023-01-10T08:42:09;18.93;;;4.93;;
2638;SDS011;1329;51.384;7.122;2023-01-10T08:44:39;12.97;;;4.63;;
2638;SDS011;1329;51.384;7.122;2023-01-10T08:47:06;23.57;;;5.33;;
2638;SDS011;1329;51.384;7.122;2023-01-10T08:49:33;12.67;;;4.63;;
2638;SDS011;1329;51.384;7.122;2023-01-10T08:52:00;14.97;;;4.30;;
2638;SDS011;1329;51.384;7.122;2023-01-10T08:54:27;13.67;;;4.07;;
2638;SDS011;1329;51.384;7.122;2023-01-10T08:56:54;11.70;;;3.47;;
2638;SDS011;1329;51.384;7.122;2023-01-10T08:59:21;14.97;;;3.73;;
2638;SDS011;1329;51.384;7.122;2023-01-10T09:01:49;11.23;;;3.83;;
2638;SDS011;1329;51.384;7.122;2023-01-10T09:04:16;15.50;;;4.60;;
2638;SDS011;1329;51.384;7.122;2023-01-10T09:06:43;13.53;;;4.53;;
2638;SDS011;1329;51.384;7.122;2023-01-10T09:09:10;9.90;;;4.00;;
2638;SDS011;1329;51.384;7.122;2023-01-10T09:11:37;15.43;;;4.47;;
2638;SDS011;1329;51.384;7.122;2023-01-10T09:14:04;14.07;;;4.57;;
2638;SDS011;1329;51.384;7.122;2023-01-10T09:16:31;13.00;;;4.47;;
2638;SDS011;1329;51.384;7.122;2023-01-10T09:18:59;14.70;;;4.23;;
2638;SDS011;1329;51.384;7.122;2023-01-10T09:21:26;14.53;;;4.83;;
2638;SDS011;1329;51.384;7.122;2023-01-10T09:23:53;16.63;;;4.47;;
2638;SDS011;1329;51.384;7.122;2023-01-10T09:26:20;14.27;;;4.57;;
2638;SDS011;1329;51.384;7.122;2023-01-10T09:28:48;18.30;;;4.67;;
2638;SDS011;1329;51.384;7.122;2023-01-10T09:31:14;18.17;;;5.20;;
2638;SDS011;1329;51.384;7.122;2023-01-10T09:33:41;14.90;;;4.97;;
2638;SDS011;1329;51.384;7.122;2023-01-10T09:36:10;13.47;;;4.63;;
2638;SDS011;1329;51.384;7.122;2023-01-10T09:38:39;15.40;;;4.63;;
2638;SDS011;1329;51.384;7.122;2023-01-10T09:44:17;16.07;;;4.33;;
2638;SDS011;1329;51.384;7.122;2023-01-10T09:46:54;14.60;;;4.40;;
2638;SDS011;1329;51.384;7.122;2023-01-10T09:49:31;14.77;;;4.83;;
2638;SDS011;1329;51.384;7.122;2023-01-10T09:52:12;13.10;;;3.97;;
2638;SDS011;1329;51.384;7.122;2023-01-10T09:54:47;15.10;;;4.17;;
2638;SDS011;1329;51.384;7.122;2023-01-10T09:57:18;16.03;;;4.07;;
2638;SDS011;1329;51.384;7.122;2023-01-10T09:59:47;14.40;;;4.67;;
2638;SDS011;1329;51.384;7.122;2023-01-10T10:02:20;11.80;;;4.10;;
2638;SDS011;1329;51.384;7.122;2023-01-10T10:05:09;14.13;;;4.27;;
2638;SDS011;1329;51.384;7.122;2023-01-10T10:07:41;11.50;;;4.40;;
2638;SDS011;1329;51.384;7.122;2023-01-10T10:10:11;16.97;;;5.43;;
2638;SDS011;1329;51.384;7.122;2023-01-10T10:12:42;17.17;;;5.10;;
2638;SDS011;1329;51.384;7.122;2023-01-10T10:15:20;11.70;;;4.23;;
2638;SDS011;1329;51.384;7.122;2023-01-10T10:17:58;16.47;;;5.10;;
2638;SDS011;1329;51.384;7.122;2023-01-10T10:20:42;14.20;;;3.90;;
2638;SDS011;1329;51.384;7.122;2023-01-10T10:23:30;14.07;;;4.20;;
2638;SDS011;1329;51.384;7.122;2023-01-10T10:26:12;16.80;;;4.27;;
2638;SDS011;1329;51.384;7.122;2023-01-10T10:31:57;19.10;;;5.57;;
2638;SDS011;1329;51.384;7.122;2023-01-10T10:34:48;13.27;;;4.07;;
2638;SDS011;1329;51.384;7.122;2023-01-10T10:37:20;14.30;;;4.10;;
2638;SDS011;1329;51.384;7.122;2023-01-10T10:39:53;12.83;;;4.60;;
2638;SDS011;1329;51.384;7.122;2023-01-10T10:42:25;12.83;;;3.90;;
2638;SDS011;1329;51.384;7.122;2023-01-10T10:44:57;14.30;;;4.30;;
2638;SDS011;1329;51.384;7.122;2023-01-10T10:47:30;12.60;;;3.97;;
2638;SDS011;1329;51.384;7.122;2023-01-10T10:50:01;13.27;;;3.90;;
2638;SDS011;1329;51.384;7.122;2023-01-10T10:52:43;11.70;;;3.87;;
2638;SDS011;1329;51.384;7.122;2023-01-10T10:55:13;11.57;;;4.47;;
2638;SDS011;1329;51.384;7.122;2023-01-10T10:57:44;12.67;;;4.03;;
2638;SDS011;1329;51.384;7.122;2023-01-10T11:00:13;13.23;;;4.07;;
2638;SDS011;1329;51.384;7.122;2023-01-10T11:02:44;14.77;;;4.03;;
2638;SDS011;1329;51.384;7.122;2023-01-10T11:05:15;13.17;;;4.30;;
2638;SDS011;1329;51.384;7.122;2023-01-10T11:07:48;12.20;;;4.17;;
2638;SDS011;1329;51.384;7.122;2023-01-10T11:10:20;11.20;;;3.97;;
2638;SDS011;1329;51.384;7.122;2023-01-10T11:13:03;10.67;;;3.83;;
2638;SDS011;1329;51.384;7.122;2023-01-10T11:15:39;14.77;;;4.67;;
2638;SDS011;1329;51.384;7.122;2023-01-10T11:18:11;12.93;;;4.77;;
2638;SDS011;1329;51.384;7.122;2023-01-10T11:20:47;17.53;;;4.67;;
2638;SDS011;1329;51.384;7.122;2023-01-10T11:23:24;15.50;;;4.00;;
2638;SDS011;1329;51.384;7.122;2023-01-10T11:26:03;15.50;;;4.30;;
2638;SDS011;1329;51.384;7.122;2023-01-10T11:28:32;11.20;;;3.67;;
2638;SDS011;1329;51.384;7.122;2023-01-10T11:31:01;13.47;;;3.90;;
2638;SDS011;1329;51.384;7.122;2023-01-10T11:33:29;13.23;;;3.60;;
2638;SDS011;1329;51.384;7.122;2023-01-10T11:36:00;12.67;;;3.33;;
2638;SDS011;1329;51.384;7.122;2023-01-10T11:38:30;10.33;;;3.57;;
2638;SDS011;1329;51.384;7.122;2023-01-10T11:40:59;13.77;;;4.23;;
2638;SDS011;1329;51.384;7.122;2023-01-10T11:43:30;15.87;;;3.83;;
2638;SDS011;1329;51.384;7.122;2023-01-10T11:46:00;13.50;;;4.07;;
2638;SDS011;1329;51.384;7.122;2023-01-10T11:48:33;9.90;;;3.30;;
2638;SDS011;1329;51.384;7.122;2023-01-10T11:51:16;10.90;;;3.20;;
2638;SDS011;1329;51.384;7.122;2023-01-10T11:53:48;11.17;;;3.80;;
2638;SDS011;1329;51.384;7.122;2023-01-10T11:56:22;14.13;;;3.47;;
2638;SDS011;1329;51.384;7.122;2023-01-10T11:58:54;12.20;;;3.77;;
2638;SDS011;1329;51.384;7.122;2023-01-10T12:01:29;11.37;;;3.40;;
2638;SDS011;1329;51.384;7.122;2023-01-10T12:04:12;14.10;;;4.00;;
2638;SDS011;1329;51.384;7.122;2023-01-10T12:06:41;13.37;;;4.83;;
2638;SDS011;1329;51.384;7.122;2023-01-10T12:12:13;10.53;;;3.47;;
2638;SDS011;1329;51.384;7.122;2023-01-10T12:14:48;11.50;;;3.50;;
2638;SDS011;1329;51.384;7.122;2023-01-10T12:17:19;13.83;;;4.17;;
2638;SDS011;1329;51.384;7.122;2023-01-10T12:19:49;10.30;;;3.60;;
2638;SDS011;1329;51.384;7.122;2023-01-10T12:22:19;14.83;;;3.73;;
2638;SDS011;1329;51.384;7.122;2023-01-10T12:24:52;10.33;;;3.53;;
2638;SDS011;1329;51.384;7.122;2023-01-10T12:27:21;13.47;;;3.30;;
2638;SDS011;1329;51.384;7.122;2023-01-10T12:29:55;13.03;;;3.50;;
2638;SDS011;1329;51.384;7.122;2023-01-10T12:32:32;10.43;;;3.53;;
2638;SDS011;1329;51.384;7.122;2023-01-10T12:35:05;12.30;;;2.73;;
2638;SDS011;1329;51.384;7.122;2023-01-10T12:37:39;17.20;;;3.70;;
2638;SDS011;1329;51.384;7.122;2023-01-10T12:40:13;12.63;;;3.50;;
2638;SDS011;1329;51.384;7.122;2023-01-10T12:42:48;10.77;;;3.60;;
2638;SDS011;1329;51.384;7.122;2023-01-10T12:45:41;14.30;;;3.40;;
2638;SDS011;1329;51.384;7.122;2023-01-10T12:48:14;12.13;;;3.33;;
2638;SDS011;1329;51.384;7.122;2023-01-10T12:50:48;14.00;;;3.40;;
2638;SDS011;1329;51.384;7.122;2023-01-10T12:53:24;12.73;;;3.20;;
2638;SDS011;1329;51.384;7.122;2023-01-10T12:55:57;10.50;;;3.40;;
2638;SDS011;1329;51.384;7.122;2023-01-10T12:58:30;9.20;;;3.33;;
2638;SDS011;1329;51.384;7.122;2023-01-10T13:01:08;13.03;;;3.17;;
2638;SDS011;1329;51.384;7.122;2023-01-10T13:03:39;12.70;;;3.60;;
2638;SDS011;1329;51.384;7.122;2023-01-10T13:06:09;14.23;;;3.17;;
2638;SDS011;1329;51.384;7.122;2023-01-10T13:08:47;9.60;;;2.83;;
2638;SDS011;1329;51.384;7.122;2023-01-10T13:11:14;8.73;;;2.60;;
2638;SDS011;1329;51.384;7.122;2023-01-10T13:13:47;12.13;;;3.07;;
2638;SDS011;1329;51.384;7.122;2023-01-10T13:16:25;8.97;;;2.63;;
2638;SDS011;1329;51.384;7.122;2023-01-10T13:19:03;8.20;;;2.80;;
2638;SDS011;1329;51.384;7.122;2023-01-10T13:21:48;10.60;;;2.70;;
2638;SDS011;1329;51.384;7.122;2023-01-10T13:24:18;11.80;;;3.17;;
2638;SDS011;1329;51.384;7.122;2023-01-10T13:26:49;9.83;;;2.47;;
2638;SDS011;1329;51.384;7.122;2023-01-10T13:29:19;10.00;;;3.00;;
2638;SDS011;1329;51.384;7.122;2023-01-10T13:31:49;12.10;;;2.90;;
2638;SDS011;1329;51.384;7.122;2023-01-10T13:34:21;10.87;;;2.80;;
2638;SDS011;1329;51.384;7.122;2023-01-10T13:36:54;6.97;;;2.90;;
2638;SDS011;1329;51.384;7.122;2023-01-10T13:39:26;8.03;;;2.80;;
2638;SDS011;1329;51.384;7.122;2023-01-10T13:42:11;10.17;;;2.70;;
2638;SDS011;1329;51.384;7.122;2023-01-10T13:45:17;8.30;;;3.00;;
2638;SDS011;1329;51.384;7.122;2023-01-10T13:51:05;9.10;;;2.77;;
2638;SDS011;1329;51.384;7.122;2023-01-10T13:53:41;7.90;;;2.87;;
2638;SDS011;1329;51.384;7.122;2023-01-10T13:56:32;7.63;;;2.57;;
2638;SDS011;1329;51.384;7.122;2023-01-10T13:59:03;8.60;;;3.17;;
2638;SDS011;1329;51.384;7.122;2023-01-10T14:01:55;8.77;;;2.47;;
2638;SDS011;1329;51.384;7.122;2023-01-10T14:04:48;8.03;;;2.83;;
2638;SDS011;1329;51.384;7.122;2023-01-10T14:07:20;10.37;;;2.90;;
2638;SDS011;1329;51.384;7.122;2023-01-10T14:09:51;11.60;;;2.80;;
2638;SDS011;1329;51.384;7.122;2023-01-10T14:12:25;10.27;;;2.90;;
2638;SDS011;1329;51.384;7.122;2023-01-10T14:15:00;8.00;;;2.63;;
2638;SDS011;1329;51.384;7.122;2023-01-10T14:17:45;10.03;;;3.17;;
2638;SDS011;1329;51.384;7.122;2023-01-10T14:20:24;9.43;;;2.70;;
2638;SDS011;1329;51.384;7.122;2023-01-10T14:23:05;10.37;;;3.00;;
2638;SDS011;1329;51.384;7.122;2023-01-10T14:25:44;9.40;;;2.97;;
2638;SDS011;1329;51.384;7.122;2023-01-10T14:28:19;10.30;;;3.20;;
2638;SDS011;1329;51.384;7.122;2023-01-10T14:30:59;7.33;;;3.23;;
2638;SDS011;1329;51.384;7.122;2023-01-10T14:33:29;9.37;;;2.77;;
2638;SDS011;1329;51.384;7.122;2023-01-10T14:36:00;7.03;;;2.30;;
2638;SDS011;1329;51.384;7.122;2023-01-10T14:38:32;5.17;;;1.93;;
2638;SDS011;1329;51.384;7.122;2023-01-10T14:41:01;12.43;;;2.80;;
2638;SDS011;1329;51.384;7.122;2023-01-10T14:43:36;7.43;;;3.00;;
2638;SDS011;1329;51.384;7.122;2023-01-10T14:46:10;9.63;;;2.73;;
2638;SDS011;1329;51.384;7.122;2023-01-10T14:48:45;11.93;;;3.07;;
2638;SDS011;1329;51.384;7.122;2023-01-10T14:51:19;9.63;;;3.00;;
2638;SDS011;1329;51.384;7.122;2023-01-10T14:53:54;10.53;;;3.07;;
2638;SDS011;1329;51.384;7.122;2023-01-10T14:56:25;11.03;;;3.30;;
2638;SDS011;1329;51.384;7.122;2023-01-10T14:58:53;8.17;;;2.87;;
2638;SDS011;1329;51.384;7.122;2023-01-10T15:01:23;10.30;;;2.80;;
2638;SDS011;1329;51.384;7.122;2023-01-10T15:03:53;7.47;;;2.80;;
2638;SDS011;1329;51.384;7.122;2023-01-10T15:06:23;10.57;;;3.13;;
2638;SDS011;1329;51.384;7.122;2023-01-10T15:08:57;7.27;;;2.83;;
2638;SDS011;1329;51.384;7.122;2023-01-10T15:11:27;8.20;;;3.20;;
2638;SDS011;1329;51.384;7.122;2023-01-10T15:13:58;7.43;;;2.63;;
2638;SDS011;1329;51.384;7.122;2023-01-10T15:16:31;9.47;;;3.20;;
2638;SDS011;1329;51.384;7.122;2023-01-10T15:19:01;7.47;;;2.80;;
2638;SDS011;1329;51.384;7.122;2023-01-10T15:21:29;7.37;;;2.60;;
2638;SDS011;1329;51.384;7.122;2023-01-10T15:23:56;6.63;;;2.60;;
2638;SDS011;1329;51.384;7.122;2023-01-10T15:26:25;8.77;;;2.70;;
2638;SDS011;1329;51.384;7.122;2023-01-10T15:29:03;15.47;;;6.30;;
2638;SDS011;1329;51.384;7.122;2023-01-10T15:31:36;10.43;;;3.30;;
2638;SDS011;1329;51.384;7.122;2023-01-10T15:34:13;8.47;;;2.93;;
2638;SDS011;1329;51.384;7.122;2023-01-10T15:36:46;8.60;;;2.70;;
2638;SDS011;1329;51.384;7.122;2023-01-10T15:39:17;8.60;;;2.90;;
2638;SDS011;1329;51.384;7.122;2023-01-10T15:41:47;6.60;;;2.43;;
2638;SDS011;1329;51.384;7.122;2023-01-10T15:44:34;7.83;;;2.70;;
2638;SDS011;1329;51.384;7.122;2023-01-10T15:47:05;7.10;;;2.67;;
2638;SDS011;1329;51.384;7.122;2023-01-10T15:50:00;7.07;;;2.67;;